To NAV CANADA Home Page Login to a new session Search on AWWS site Disclaimer Vers la page française équivalente Tips FAQ What's new on the site To the Forecasts and Observations / NOTAM section To "File a Flight Plan" website Publications and other links Update of the User's profile FIC Telephone Numbers My Weather Data Folder Route Weather Data Regional Weather Data Local Weather Data To the Forecasts and Observations / NOTAM section
Request Generated 11/16/2018 at 01:08:55 UTC . Weather information available at that time is displayed.

METAR/TAF

AKULIVIK/QC    

LWIS CYKO 160100Z AUTO 12016KT M15/M17 A2991=
LWIS CYKO 160000Z AUTO 13014KT M15/M17 A2991=
LWIS CYKO 152300Z AUTO 13009KT M14/M17 A2991=

CYKO - No TAF is issued for this station

Your time UTC time
Weather data provided by Environment Canada and NAV CANADA